sensor_id;sensor_type;location;lat;lon;timestamp;pressure;altitude;pressure_sealevel;temperature;humidity
67052;BME280;53957;47.222;18.670;2023-04-02T00:02:31;99237.22;;;9.19;100.00
67052;BME280;53957;47.222;18.670;2023-04-02T00:05:40;99242.00;;;9.09;100.00
67052;BME280;53957;47.222;18.670;2023-04-02T00:08:52;99242.78;;;8.95;100.00
67052;BME280;53957;47.222;18.670;2023-04-02T00:12:11;99245.91;;;8.97;100.00
67052;BME280;53957;47.222;18.670;2023-04-02T00:15:43;99239.81;;;8.83;100.00
67052;BME280;53957;47.222;18.670;2023-04-02T00:19:16;99256.75;;;8.87;100.00
67052;BME280;53957;47.222;18.670;2023-04-02T00:22:43;99257.34;;;8.98;100.00
67052;BME280;53957;47.222;18.670;2023-04-02T00:29:49;99266.00;;;9.03;100.00
67052;BME280;53957;47.222;18.670;2023-04-02T00:32:53;99270.66;;;9.12;100.00
67052;BME280;53957;47.222;18.670;2023-04-02T00:35:58;99265.94;;;9.09;100.00
67052;BME280;53957;47.222;18.670;2023-04-02T00:39:29;99269.56;;;9.13;100.00
67052;BME280;53957;47.222;18.670;2023-04-02T00:42:59;99279.81;;;9.06;100.00
67052;BME280;53957;47.222;18.670;2023-04-02T00:46:11;99275.47;;;9.24;100.00
67052;BME280;53957;47.222;18.670;2023-04-02T00:49:40;99278.13;;;9.38;100.00
67052;BME280;53957;47.222;18.670;2023-04-02T00:52:50;99274.28;;;9.16;100.00
67052;BME280;53957;47.222;18.670;2023-04-02T00:56:18;99271.16;;;9.14;100.00
67052;BME280;53957;47.222;18.670;2023-04-02T00:59:31;99268.97;;;9.16;100.00
67052;BME280;53957;47.222;18.670;2023-04-02T01:03:14;99269.34;;;9.23;100.00
67052;BME280;53957;47.222;18.670;2023-04-02T01:06:52;99258.12;;;9.26;100.00
67052;BME280;53957;47.222;18.670;2023-04-02T01:24:12;99260.88;;;9.35;100.00
67052;BME280;53957;47.222;18.670;2023-04-02T01:27:41;99273.31;;;9.40;100.00
67052;BME280;53957;47.222;18.670;2023-04-02T01:31:08;99274.06;;;9.40;100.00
67052;BME280;53957;47.222;18.670;2023-04-02T01:34:33;99265.00;;;9.41;100.00
67052;BME280;53957;47.222;18.670;2023-04-02T01:37:53;99265.12;;;9.36;100.00
67052;BME280;53957;47.222;18.670;2023-04-02T01:41:13;99267.66;;;9.55;100.00
67052;BME280;53957;47.222;18.670;2023-04-02T01:44:42;99263.81;;;9.47;100.00
67052;BME280;53957;47.222;18.670;2023-04-02T01:48:16;99264.72;;;9.43;100.00
67052;BME280;53957;47.222;18.670;2023-04-02T01:51:32;99269.72;;;9.44;100.00
67052;BME280;53957;47.222;18.670;2023-04-02T01:54:42;99269.94;;;9.34;100.00
67052;BME280;53957;47.222;18.670;2023-04-02T01:57:49;99266.88;;;9.41;100.00
67052;BME280;53957;47.222;18.670;2023-04-02T02:01:03;99272.00;;;9.51;100.00
67052;BME280;53957;47.222;18.670;2023-04-02T02:04:11;99274.28;;;9.44;100.00
67052;BME280;53957;47.222;18.670;2023-04-02T02:07:19;99268.56;;;9.37;100.00
67052;BME280;53957;47.222;18.670;2023-04-02T02:10:33;99275.44;;;9.51;100.00
67052;BME280;53957;47.222;18.670;2023-04-02T02:13:37;99269.16;;;9.33;100.00
67052;BME280;53957;47.222;18.670;2023-04-02T02:16:42;99267.88;;;9.45;100.00
67052;BME280;53957;47.222;18.670;2023-04-02T02:19:51;99257.50;;;9.57;100.00
67052;BME280;53957;47.222;18.670;2023-04-02T02:22:57;99265.41;;;9.34;100.00
67052;BME280;53957;47.222;18.670;2023-04-02T02:26:45;99268.06;;;9.48;100.00
67052;BME280;53957;47.222;18.670;2023-04-02T02:33:26;99269.66;;;9.22;100.00
67052;BME280;53957;47.222;18.670;2023-04-02T02:37:03;99267.00;;;9.08;100.00
67052;BME280;53957;47.222;18.670;2023-04-02T02:40:28;99271.16;;;9.14;100.00
67052;BME280;53957;47.222;18.670;2023-04-02T02:43:38;99272.22;;;8.99;100.00
67052;BME280;53957;47.222;18.670;2023-04-02T02:46:47;99274.38;;;8.97;100.00
67052;BME280;53957;47.222;18.670;2023-04-02T02:49:55;99273.69;;;8.91;100.00
67052;BME280;53957;47.222;18.670;2023-04-02T02:53:23;99288.16;;;8.85;100.00
67052;BME280;53957;47.222;18.670;2023-04-02T02:56:52;99286.16;;;8.63;100.00
67052;BME280;53957;47.222;18.670;2023-04-02T02:59:59;99285.59;;;8.47;100.00
67052;BME280;53957;47.222;18.670;2023-04-02T03:03:08;99284.09;;;8.41;100.00
67052;BME280;53957;47.222;18.670;2023-04-02T03:06:18;99279.88;;;8.40;100.00
67052;BME280;53957;47.222;18.670;2023-04-02T05:11:56;99366.09;;;9.97;100.00
67052;BME280;53957;47.222;18.670;2023-04-02T05:18:35;99379.84;;;10.63;100.00
67052;BME280;53957;47.222;18.670;2023-04-02T06:09:02;99379.16;;;12.89;87.47
67052;BME280;53957;47.222;18.670;2023-04-02T06:12:15;99379.09;;;11.75;94.84
67052;BME280;53957;47.222;18.670;2023-04-02T06:15:22;99386.72;;;11.99;95.68
67052;BME280;53957;47.222;18.670;2023-04-02T06:18:29;99389.69;;;11.40;99.43
67052;BME280;53957;47.222;18.670;2023-04-02T06:21:58;99395.09;;;12.15;96.18
67052;BME280;53957;47.222;18.670;2023-04-02T06:25:19;99396.41;;;11.86;99.29
67052;BME280;53957;47.222;18.670;2023-04-02T06:28:47;99399.72;;;13.62;90.39
67052;BME280;53957;47.222;18.670;2023-04-02T06:32:00;99411.22;;;13.93;85.47
67052;BME280;53957;47.222;18.670;2023-04-02T06:35:04;99418.91;;;14.45;85.29
67052;BME280;53957;47.222;18.670;2023-04-02T06:38:22;99411.09;;;15.07;83.19
67052;BME280;53957;47.222;18.670;2023-04-02T06:41:27;99414.72;;;15.24;79.84
67052;BME280;53957;47.222;18.670;2023-04-02T06:44:34;99420.06;;;14.36;81.55
67052;BME280;53957;47.222;18.670;2023-04-02T06:47:49;99421.56;;;14.03;84.96
67052;BME280;53957;47.222;18.670;2023-04-02T06:51:02;99431.31;;;13.78;87.95
67052;BME280;53957;47.222;18.670;2023-04-02T06:54:13;99433.03;;;13.82;89.45
67052;BME280;53957;47.222;18.670;2023-04-02T06:57:17;99428.78;;;13.81;87.32
67052;BME280;53957;47.222;18.670;2023-04-02T07:00:45;99434.81;;;13.40;89.30
67052;BME280;53957;47.222;18.670;2023-04-02T07:04:08;99438.25;;;13.31;89.51
67052;BME280;53957;47.222;18.670;2023-04-02T07:07:12;99432.97;;;12.96;91.15
67052;BME280;53957;47.222;18.670;2023-04-02T07:10:36;99439.56;;;13.16;91.99
67052;BME280;53957;47.222;18.670;2023-04-02T07:13:39;99440.75;;;13.45;89.84
67052;BME280;53957;47.222;18.670;2023-04-02T07:16:43;99444.72;;;13.39;91.48
67052;BME280;53957;47.222;18.670;2023-04-02T07:23:29;99450.25;;;13.73;89.81
67052;BME280;53957;47.222;18.670;2023-04-02T07:26:32;99458.34;;;14.03;88.19
67052;BME280;53957;47.222;18.670;2023-04-02T07:29:35;99468.06;;;14.07;84.21
67052;BME280;53957;47.222;18.670;2023-04-02T07:32:44;99455.81;;;13.97;86.43
67052;BME280;53957;47.222;18.670;2023-04-02T07:35:48;99465.75;;;14.27;85.24
67052;BME280;53957;47.222;18.670;2023-04-02T07:38:52;99462.50;;;14.12;85.14
67052;BME280;53957;47.222;18.670;2023-04-02T07:42:03;99466.38;;;15.54;79.31
67052;BME280;53957;47.222;18.670;2023-04-02T07:45:06;99470.31;;;15.57;77.16
67052;BME280;53957;47.222;18.670;2023-04-02T07:48:11;99468.44;;;15.24;77.73
67052;BME280;53957;47.222;18.670;2023-04-02T07:51:23;99469.78;;;15.18;78.59
67052;BME280;53957;47.222;18.670;2023-04-02T07:54:27;99474.50;;;15.33;78.49
67052;BME280;53957;47.222;18.670;2023-04-02T07:57:31;99488.00;;;15.12;79.67
67052;BME280;53957;47.222;18.670;2023-04-02T08:00:35;99488.50;;;14.93;82.99
67052;BME280;53957;47.222;18.670;2023-04-02T08:03:40;99484.53;;;14.78;81.18
67052;BME280;53957;47.222;18.670;2023-04-02T08:06:43;99489.41;;;14.97;82.31
67052;BME280;53957;47.222;18.670;2023-04-02T08:10:09;99493.72;;;15.69;79.82
67052;BME280;53957;47.222;18.670;2023-04-02T08:13:13;99489.31;;;15.06;79.56
67052;BME280;53957;47.222;18.670;2023-04-02T08:16:16;99495.72;;;15.59;79.96
67052;BME280;53957;47.222;18.670;2023-04-02T08:19:19;99492.97;;;15.93;76.68
67052;BME280;53957;47.222;18.670;2023-04-02T08:22:23;99497.87;;;15.78;78.88
67052;BME280;53957;47.222;18.670;2023-04-02T08:25:26;99501.88;;;15.60;81.77
67052;BME280;53957;47.222;18.670;2023-04-02T08:28:29;99498.94;;;15.53;78.56
67052;BME280;53957;47.222;18.670;2023-04-02T08:31:32;99510.56;;;15.44;78.96
67052;BME280;53957;47.222;18.670;2023-04-02T08:34:35;99505.25;;;15.23;80.55
67052;BME280;53957;47.222;18.670;2023-04-02T08:37:38;99512.38;;;14.43;84.82
67052;BME280;53957;47.222;18.670;2023-04-02T08:40:48;99511.56;;;14.64;86.98
67052;BME280;53957;47.222;18.670;2023-04-02T08:47:04;99518.22;;;14.07;88.46
67052;BME280;53957;47.222;18.670;2023-04-02T08:53:36;99524.38;;;14.07;88.31
67052;BME280;53957;47.222;18.670;2023-04-02T08:57:13;99525.56;;;13.89;89.96
67052;BME280;53957;47.222;18.670;2023-04-02T09:03:33;99536.41;;;14.61;85.83
67052;BME280;53957;47.222;18.670;2023-04-02T09:06:37;99523.88;;;14.44;84.81
67052;BME280;53957;47.222;18.670;2023-04-02T09:09:40;99531.91;;;14.74;85.01
67052;BME280;53957;47.222;18.670;2023-04-02T09:12:50;99536.50;;;14.43;83.25
67052;BME280;53957;47.222;18.670;2023-04-02T09:16:11;99537.34;;;14.86;83.53
67052;BME280;53957;47.222;18.670;2023-04-02T09:19:34;99528.44;;;15.28;77.45
67052;BME280;53957;47.222;18.670;2023-04-02T09:22:38;99534.94;;;15.27;80.56
67052;BME280;53957;47.222;18.670;2023-04-02T09:25:47;99531.91;;;14.74;80.21
67052;BME280;53957;47.222;18.670;2023-04-02T09:35:28;99546.25;;;15.66;80.41
67052;BME280;53957;47.222;18.670;2023-04-02T09:38:31;99539.16;;;15.16;80.43
67052;BME280;53957;47.222;18.670;2023-04-02T09:41:38;99541.84;;;14.94;84.12
67052;BME280;53957;47.222;18.670;2023-04-02T09:44:43;99539.47;;;15.48;80.26
67052;BME280;53957;47.222;18.670;2023-04-02T09:47:46;99543.78;;;15.27;79.54
67052;BME280;53957;47.222;18.670;2023-04-02T09:50:49;99547.12;;;16.04;80.90
67052;BME280;53957;47.222;18.670;2023-04-02T09:54:10;99556.63;;;16.63;80.37
67052;BME280;53957;47.222;18.670;2023-04-02T09:57:22;99557.47;;;16.80;74.67
67052;BME280;53957;47.222;18.670;2023-04-02T10:00:27;99557.91;;;16.94;73.80
67052;BME280;53957;47.222;18.670;2023-04-02T10:03:35;99559.91;;;16.85;76.62
67052;BME280;53957;47.222;18.670;2023-04-02T10:06:48;99560.13;;;17.04;74.37
67052;BME280;53957;47.222;18.670;2023-04-02T10:09:59;99563.25;;;17.06;72.75
67052;BME280;53957;47.222;18.670;2023-04-02T10:13:15;99560.88;;;16.27;76.16
67052;BME280;53957;47.222;18.670;2023-04-02T10:19:36;99553.13;;;16.50;76.91
67052;BME280;53957;47.222;18.670;2023-04-02T10:22:41;99553.38;;;16.45;70.18
67052;BME280;53957;47.222;18.670;2023-04-02T10:25:55;99554.84;;;16.18;77.95
67052;BME280;53957;47.222;18.670;2023-04-02T10:32:58;99550.41;;;15.30;76.91
67052;BME280;53957;47.222;18.670;2023-04-02T10:39:32;99559.94;;;16.72;71.18
67052;BME280;53957;47.222;18.670;2023-04-02T10:49:13;99557.94;;;15.16;80.79
67052;BME280;53957;47.222;18.670;2023-04-02T10:52:38;99553.63;;;15.57;80.42
67052;BME280;53957;47.222;18.670;2023-04-02T10:55:56;99554.50;;;16.44;73.17
67052;BME280;53957;47.222;18.670;2023-04-02T11:02:27;99560.00;;;16.10;77.06
67052;BME280;53957;47.222;18.670;2023-04-02T11:08:44;99557.22;;;16.97;71.03
67052;BME280;53957;47.222;18.670;2023-04-02T11:11:50;99541.00;;;16.56;74.16
67052;BME280;53957;47.222;18.670;2023-04-02T11:14:55;99549.22;;;15.98;74.94
67052;BME280;53957;47.222;18.670;2023-04-02T11:17:58;99541.44;;;15.59;77.76
67052;BME280;53957;47.222;18.670;2023-04-02T11:21:34;99548.03;;;15.62;77.86
67052;BME280;53957;47.222;18.670;2023-04-02T11:28:32;99535.94;;;15.01;81.10
67052;BME280;53957;47.222;18.670;2023-04-02T11:31:34;99549.84;;;15.03;78.56
67052;BME280;53957;47.222;18.670;2023-04-02T11:41:13;99546.34;;;15.24;79.03
67052;BME280;53957;47.222;18.670;2023-04-02T11:48:39;99556.53;;;16.35;77.51
67052;BME280;53957;47.222;18.670;2023-04-02T11:51:48;99549.78;;;15.45;76.39
67052;BME280;53957;47.222;18.670;2023-04-02T11:55:22;99546.25;;;15.66;77.36
67052;BME280;53957;47.222;18.670;2023-04-02T14:17:09;99515.28;;;14.50;76.78
67052;BME280;53957;47.222;18.670;2023-04-02T14:20:21;99514.88;;;14.70;77.89
67052;BME280;53957;47.222;18.670;2023-04-02T14:27:17;99504.81;;;15.21;79.01
67052;BME280;53957;47.222;18.670;2023-04-02T14:34:01;99507.84;;;14.56;83.68
67052;BME280;53957;47.222;18.670;2023-04-02T14:37:13;99522.19;;;14.60;84.23
67052;BME280;53957;47.222;18.670;2023-04-02T14:40:34;99514.84;;;14.18;88.43
67052;BME280;53957;47.222;18.670;2023-04-02T14:43:53;99515.50;;;13.85;84.91
67052;BME280;53957;47.222;18.670;2023-04-02T14:47:13;99527.13;;;13.90;86.35
67052;BME280;53957;47.222;18.670;2023-04-02T14:50:26;99535.78;;;13.95;87.01
67052;BME280;53957;47.222;18.670;2023-04-02T14:53:41;99541.22;;;14.16;87.77
67052;BME280;53957;47.222;18.670;2023-04-02T14:57:31;99539.69;;;13.59;86.43
67052;BME280;53957;47.222;18.670;2023-04-02T15:00:40;99546.97;;;13.41;87.28
67052;BME280;53957;47.222;18.670;2023-04-02T15:03:56;99548.38;;;12.77;90.89
67052;BME280;53957;47.222;18.670;2023-04-02T15:07:16;99563.50;;;13.08;91.18
67052;BME280;53957;47.222;18.670;2023-04-02T15:10:43;99560.19;;;12.76;92.44
67052;BME280;53957;47.222;18.670;2023-04-02T15:13:58;99549.69;;;12.22;94.85
67052;BME280;53957;47.222;18.670;2023-04-02T15:17:02;99557.06;;;12.16;95.38
67052;BME280;53957;47.222;18.670;2023-04-02T15:20:15;99546.38;;;12.16;98.58
67052;BME280;53957;47.222;18.670;2023-04-02T15:23:25;99552.22;;;11.96;100.00
67052;BME280;53957;47.222;18.670;2023-04-02T15:30:42;99550.75;;;12.12;98.29
67052;BME280;53957;47.222;18.670;2023-04-02T15:37:14;99553.72;;;11.79;100.00
67052;BME280;53957;47.222;18.670;2023-04-02T15:50:50;99565.47;;;12.01;100.00
67052;BME280;53957;47.222;18.670;2023-04-02T16:01:11;99573.00;;;12.30;100.00
67052;BME280;53957;47.222;18.670;2023-04-02T16:11:13;99590.69;;;12.57;97.65
67052;BME280;53957;47.222;18.670;2023-04-02T16:14:27;99596.34;;;12.56;100.00
67052;BME280;53957;47.222;18.670;2023-04-02T16:18:02;99601.38;;;12.57;99.04
67052;BME280;53957;47.222;18.670;2023-04-02T16:21:14;99598.31;;;12.33;99.61
67052;BME280;53957;47.222;18.670;2023-04-02T16:24:19;99611.84;;;12.28;99.31
67052;BME280;53957;47.222;18.670;2023-04-02T16:27:51;99610.22;;;12.18;98.67
67052;BME280;53957;47.222;18.670;2023-04-02T16:31:20;99611.94;;;12.14;100.00
67052;BME280;53957;47.222;18.670;2023-04-02T16:37:41;99619.25;;;11.99;100.00
67052;BME280;53957;47.222;18.670;2023-04-02T16:44:40;99623.56;;;11.64;100.00
67052;BME280;53957;47.222;18.670;2023-04-02T16:51:35;99635.87;;;11.51;99.38
67052;BME280;53957;47.222;18.670;2023-04-02T16:58:42;99641.38;;;11.32;97.18
67052;BME280;53957;47.222;18.670;2023-04-02T17:05:32;99656.44;;;11.14;95.42
67052;BME280;53957;47.222;18.670;2023-04-02T17:08:55;99659.63;;;11.02;95.80
67052;BME280;53957;47.222;18.670;2023-04-02T17:12:14;99664.09;;;10.92;95.11
67052;BME280;53957;47.222;18.670;2023-04-02T17:18:42;99683.16;;;10.58;95.97
67052;BME280;53957;47.222;18.670;2023-04-02T17:21:51;99677.03;;;10.57;96.07
67052;BME280;53957;47.222;18.670;2023-04-02T17:25:15;99696.09;;;10.51;97.21
67052;BME280;53957;47.222;18.670;2023-04-02T17:28:38;99691.78;;;10.36;96.86
67052;BME280;53957;47.222;18.670;2023-04-02T17:31:42;99694.09;;;10.09;98.74
67052;BME280;53957;47.222;18.670;2023-04-02T17:34:48;99701.97;;;10.01;98.27
67052;BME280;53957;47.222;18.670;2023-04-02T17:48:43;99730.56;;;9.38;95.59
67052;BME280;53957;47.222;18.670;2023-04-02T17:51:55;99738.75;;;9.22;96.06
67052;BME280;53957;47.222;18.670;2023-04-02T17:55:19;99745.31;;;9.06;94.10
67052;BME280;53957;47.222;18.670;2023-04-02T19:41:49;99909.00;;;5.76;95.70
67052;BME280;53957;47.222;18.670;2023-04-02T19:45:02;99916.09;;;5.60;97.58
67052;BME280;53957;47.222;18.670;2023-04-02T19:48:17;99909.72;;;5.56;98.02
67052;BME280;53957;47.222;18.670;2023-04-02T19:51:22;99922.88;;;5.51;97.41
67052;BME280;53957;47.222;18.670;2023-04-02T19:54:30;99925.19;;;5.37;97.50
67052;BME280;53957;47.222;18.670;2023-04-02T19:57:34;99927.94;;;5.52;97.67
67052;BME280;53957;47.222;18.670;2023-04-02T20:00:57;99923.56;;;5.30;98.70
67052;BME280;53957;47.222;18.670;2023-04-02T20:04:00;99940.75;;;5.28;98.88
67052;BME280;53957;47.222;18.670;2023-04-02T20:07:05;99940.13;;;5.15;99.66
67052;BME280;53957;47.222;18.670;2023-04-02T20:10:09;99933.22;;;5.09;100.00
67052;BME280;53957;47.222;18.670;2023-04-02T20:13:22;99941.84;;;4.99;100.00
67052;BME280;53957;47.222;18.670;2023-04-02T20:16:28;99950.06;;;5.03;100.00
67052;BME280;53957;47.222;18.670;2023-04-02T20:19:35;99951.62;;;4.99;100.00
67052;BME280;53957;47.222;18.670;2023-04-02T20:22:38;99952.69;;;4.98;100.00
67052;BME280;53957;47.222;18.670;2023-04-02T20:25:48;99961.94;;;5.00;100.00
67052;BME280;53957;47.222;18.670;2023-04-02T20:28:55;99964.84;;;4.99;100.00
67052;BME280;53957;47.222;18.670;2023-04-02T20:32:17;99960.16;;;5.06;100.00
67052;BME280;53957;47.222;18.670;2023-04-02T20:35:28;99975.00;;;5.12;100.00
67052;BME280;53957;47.222;18.670;2023-04-02T20:38:32;99982.66;;;5.09;100.00
67052;BME280;53957;47.222;18.670;2023-04-02T20:41:36;99979.53;;;5.17;99.71
67052;BME280;53957;47.222;18.670;2023-04-02T20:44:40;99984.28;;;5.15;100.00
67052;BME280;53957;47.222;18.670;2023-04-02T20:47:43;99988.16;;;5.07;100.00
67052;BME280;53957;47.222;18.670;2023-04-02T20:50:46;99984.78;;;5.12;100.00
67052;BME280;53957;47.222;18.670;2023-04-02T20:54:09;99986.66;;;5.16;100.00
67052;BME280;53957;47.222;18.670;2023-04-02T20:57:12;99996.94;;;5.13;100.00
67052;BME280;53957;47.222;18.670;2023-04-02T21:00:17;99997.22;;;5.11;99.85
67052;BME280;53957;47.222;18.670;2023-04-02T21:03:20;99988.44;;;5.06;99.62
67052;BME280;53957;47.222;18.670;2023-04-02T21:06:26;99994.78;;;5.10;99.79
67052;BME280;53957;47.222;18.670;2023-04-02T21:09:31;99989.25;;;5.06;99.09
67052;BME280;53957;47.222;18.670;2023-04-02T21:12:34;99993.41;;;5.02;100.00
67052;BME280;53957;47.222;18.670;2023-04-02T21:15:39;100000.84;;;5.05;99.34
67052;BME280;53957;47.222;18.670;2023-04-02T21:18:56;100000.81;;;5.00;99.32
67052;BME280;53957;47.222;18.670;2023-04-02T21:22:00;100008.22;;;5.03;98.63
67052;BME280;53957;47.222;18.670;2023-04-02T21:25:03;100011.91;;;5.02;98.43
67052;BME280;53957;47.222;18.670;2023-04-02T21:28:06;100015.69;;;5.06;99.18
67052;BME280;53957;47.222;18.670;2023-04-02T21:31:13;100016.41;;;5.02;98.28
67052;BME280;53957;47.222;18.670;2023-04-02T21:34:16;100021.75;;;5.07;99.12
67052;BME280;53957;47.222;18.670;2023-04-02T21:37:21;100016.72;;;5.05;98.99
67052;BME280;53957;47.222;18.670;2023-04-02T21:40:26;100027.06;;;5.12;98.56
67052;BME280;53957;47.222;18.670;2023-04-02T21:43:29;100020.16;;;5.06;99.27
67052;BME280;53957;47.222;18.670;2023-04-02T21:46:37;100024.13;;;5.08;98.12
67052;BME280;53957;47.222;18.670;2023-04-02T21:49:45;100032.81;;;5.04;98.25
67052;BME280;53957;47.222;18.670;2023-04-02T21:52:51;100033.63;;;5.04;98.86
67052;BME280;53957;47.222;18.670;2023-04-02T21:56:02;100026.19;;;5.01;98.53
67052;BME280;53957;47.222;18.670;2023-04-02T21:59:11;100038.47;;;5.12;98.86
67052;BME280;53957;47.222;18.670;2023-04-02T22:02:15;100042.44;;;5.15;98.83
67052;BME280;53957;47.222;18.670;2023-04-02T22:05:18;100056.16;;;5.12;98.78
67052;BME280;53957;47.222;18.670;2023-04-02T22:08:21;100053.72;;;5.05;99.08
67052;BME280;53957;47.222;18.670;2023-04-02T22:11:31;100053.78;;;5.10;99.02
67052;BME280;53957;47.222;18.670;2023-04-02T22:14:34;100062.78;;;5.14;100.00
67052;BME280;53957;47.222;18.670;2023-04-02T22:18:17;100056.31;;;5.00;98.13
67052;BME280;53957;47.222;18.670;2023-04-02T22:21:21;100056.91;;;5.07;98.82
67052;BME280;53957;47.222;18.670;2023-04-02T22:24:26;100061.63;;;5.00;98.89
67052;BME280;53957;47.222;18.670;2023-04-02T22:27:50;100065.28;;;4.99;98.65
67052;BME280;53957;47.222;18.670;2023-04-02T22:31:06;100073.56;;;5.08;97.38
67052;BME280;53957;47.222;18.670;2023-04-02T22:34:10;100063.44;;;4.99;97.84
67052;BME280;53957;47.222;18.670;2023-04-02T22:37:17;100072.53;;;5.09;97.92
67052;BME280;53957;47.222;18.670;2023-04-02T22:40:21;100074.28;;;4.98;96.79
67052;BME280;53957;47.222;18.670;2023-04-02T22:43:26;100087.06;;;5.06;98.33
67052;BME280;53957;47.222;18.670;2023-04-02T22:46:29;100085.94;;;5.02;98.27
67052;BME280;53957;47.222;18.670;2023-04-02T22:49:33;100091.41;;;4.95;97.87
67052;BME280;53957;47.222;18.670;2023-04-02T22:52:37;100089.00;;;4.94;96.62
67052;BME280;53957;47.222;18.670;2023-04-02T22:55:40;100104.63;;;4.95;96.52
67052;BME280;53957;47.222;18.670;2023-04-02T22:58:43;100107.03;;;4.97;97.13
67052;BME280;53957;47.222;18.670;2023-04-02T23:01:47;100107.75;;;4.92;96.58
67052;BME280;53957;47.222;18.670;2023-04-02T23:04:50;100116.16;;;4.84;97.10
67052;BME280;53957;47.222;18.670;2023-04-02T23:07:53;100118.06;;;4.94;96.44
67052;BME280;53957;47.222;18.670;2023-04-02T23:11:25;100126.53;;;4.91;98.08
67052;BME280;53957;47.222;18.670;2023-04-02T23:14:32;100125.13;;;4.83;97.69
67052;BME280;53957;47.222;18.670;2023-04-02T23:17:35;100125.34;;;4.81;98.00
67052;BME280;53957;47.222;18.670;2023-04-02T23:20:40;100131.19;;;4.83;98.56
67052;BME280;53957;47.222;18.670;2023-04-02T23:23:43;100130.75;;;4.92;98.97
67052;BME280;53957;47.222;18.670;2023-04-02T23:26:47;100124.59;;;4.86;96.65
67052;BME280;53957;47.222;18.670;2023-04-02T23:29:51;100130.56;;;4.76;97.68
67052;BME280;53957;47.222;18.670;2023-04-02T23:32:54;100133.25;;;4.81;98.21
67052;BME280;53957;47.222;18.670;2023-04-02T23:35:58;100135.78;;;4.71;99.29
67052;BME280;53957;47.222;18.670;2023-04-02T23:39:08;100137.47;;;4.77;98.58
67052;BME280;53957;47.222;18.670;2023-04-02T23:42:12;100143.16;;;4.69;99.04
67052;BME280;53957;47.222;18.670;2023-04-02T23:45:15;100148.53;;;4.74;97.63
67052;BME280;53957;47.222;18.670;2023-04-02T23:48:19;100145.13;;;4.79;100.00
67052;BME280;53957;47.222;18.670;2023-04-02T23:51:24;100137.19;;;4.79;100.00
67052;BME280;53957;47.222;18.670;2023-04-02T23:54:27;100149.41;;;4.63;100.00
67052;BME280;53957;47.222;18.670;2023-04-02T23:57:34;100152.06;;;4.63;99.28
